Beatrice Municipal Airport

About
Name: Beatrice Municipal Airport
Identifier:  BIE/KBIE
Serves:  Beatrice, Nebraska
Owner:  Beatrice Airport Authority
Public/Private:  Public
Local Time:  19. Aug 05:30 CDT
Description: Beatrice Municipal Airport is 3 mi north of Beatrice, in Gage County, Nebraska.
Source: Wikipedia
Location
Runways
Identifier Length (m/ft) Surface
18/36 5,602/5,602 Concrete
14/32 4,401/4,401 Concrete
Flights per Day
0 flights
Distance: 196km (122mi)
Punctuality
0% (0 flights per day delayed)
Delay Average: 11 minutes
Current Weather
 19 C (Humidity: 100%)
  0kt (0km/h / 0mph) from 0°
  8km (5 mi.)
 Mist
 METAR KBIE 190915Z AUTO 00000KT 5SM BR CLR 19/19 A2998 RMK AO2 T01860185

Current Flights

Departures
Number Departure To Airline
Arrivals
Number Arrival From Airline

Current Delays

Departures
N/A
Arrivals
N/A

Destinations

Top Destinations
Airport Flights
per week
Seats
per week
  Kearney (EAR) 3 - 0 0
  Omaha (OMA) 3 - 0 0
  Chadron (CDR) 2 - 0 0
  South Bend (SBN) 0 - 0 0
  Aspen (ASE) 0 - 0 0
  Jonesboro (JBR) 0 - 0 0
  Gary (GYY) 0 - 0 0
  Colorado Springs (COS) 0 - 0 0
  Council Bluffs (CBF) 0 - 0 0

Airlines & Planes

Top Airlines
Airline Flights
per Day
Seats
per Day
Suburban Air Freight 0 -
Nordwind Airlines 0 -
  Novair 0 -
  Flybe Nordic 0 -
Top Plane Types
Model Flights Seats
Beech 1900D 1.0/day - 0
Piper PA28-181 0.3/day - 0
Diamond DA42 NG Twin Star 0.1/day - 0
Beech E90 King Air 0.1/day - 0
Cessna C172 0.0/day - 0